createdAt,value
2018-09-27T00:02:07.105Z,0.80
2018-09-27T00:04:35.580Z,0.80
2018-09-27T00:07:04.048Z,0.60
2018-09-27T00:09:32.196Z,0.70
2018-09-27T00:12:00.720Z,0.80
2018-09-27T00:14:29.176Z,0.80
2018-09-27T00:16:57.674Z,0.90
2018-09-27T00:19:26.283Z,0.80
2018-09-27T00:21:54.452Z,0.77
2018-09-27T00:24:23.013Z,0.70
2018-09-27T00:26:51.515Z,0.70
2018-09-27T00:29:19.936Z,0.93
2018-09-27T00:31:48.401Z,1.17
2018-09-27T00:34:16.844Z,0.90
2018-09-27T00:36:45.417Z,1.10
2018-09-27T00:39:14.796Z,0.80
2018-09-27T00:41:43.215Z,0.77
2018-09-27T00:44:11.872Z,0.73
2018-09-27T00:46:40.316Z,0.83
2018-09-27T00:49:08.839Z,1.20
2018-09-27T00:51:37.278Z,0.80
2018-09-27T00:54:05.743Z,0.60
2018-09-27T00:56:34.180Z,0.70
2018-09-27T00:59:02.662Z,0.90
2018-09-27T01:01:31.239Z,0.97
2018-09-27T01:03:59.681Z,1.00
2018-09-27T01:06:28.105Z,0.50
2018-09-27T01:08:56.542Z,0.80
2018-09-27T01:11:24.989Z,0.67
2018-09-27T01:13:53.480Z,0.80
2018-09-27T01:16:21.616Z,0.87
2018-09-27T01:18:50.117Z,0.67
2018-09-27T01:21:18.569Z,0.67
2018-09-27T01:23:47.080Z,0.70
2018-09-27T01:26:15.768Z,0.67
2018-09-27T01:28:44.252Z,0.53
2018-09-27T01:31:12.740Z,0.70
2018-09-27T01:33:41.168Z,0.70
2018-09-27T01:36:09.633Z,0.80
2018-09-27T01:38:38.089Z,0.57
2018-09-27T01:41:06.856Z,0.83
2018-09-27T01:43:35.324Z,0.73
2018-09-27T01:46:03.764Z,0.80
2018-09-27T01:48:32.239Z,0.70
2018-09-27T01:51:00.669Z,0.70
2018-09-27T01:53:29.141Z,0.63
2018-09-27T01:55:57.552Z,0.80
2018-09-27T01:58:26.037Z,0.67
2018-09-27T02:00:54.554Z,0.80
2018-09-27T02:03:23.042Z,0.60
2018-09-27T02:05:51.550Z,0.80
2018-09-27T02:08:20.126Z,0.70
2018-09-27T02:10:48.626Z,0.90
2018-09-27T02:13:17.073Z,0.83
2018-09-27T02:15:45.508Z,0.80
2018-09-27T02:18:13.941Z,0.70
2018-09-27T02:20:42.549Z,0.73
2018-09-27T02:23:10.956Z,0.50
2018-09-27T02:25:39.140Z,0.70
2018-09-27T02:28:07.764Z,0.67
2018-09-27T02:30:36.421Z,0.67
2018-09-27T02:33:04.859Z,1.10
2018-09-27T02:35:33.328Z,0.73
2018-09-27T02:38:01.752Z,0.80
2018-09-27T02:40:30.238Z,0.63
2018-09-27T02:42:58.637Z,0.60
2018-09-27T02:45:27.084Z,0.70
2018-09-27T02:47:55.525Z,0.83
2018-09-27T02:50:23.994Z,0.70
2018-09-27T02:52:52.628Z,1.10
2018-09-27T02:55:21.115Z,1.00
2018-09-27T02:57:49.597Z,0.80
2018-09-27T03:00:18.179Z,0.60
2018-09-27T03:02:46.651Z,0.70
2018-09-27T03:05:15.104Z,0.60
2018-09-27T03:07:43.516Z,0.73
2018-09-27T03:10:11.960Z,0.60
2018-09-27T03:12:40.113Z,0.67
2018-09-27T03:15:08.603Z,0.70
2018-09-27T03:20:57.987Z,0.70
2018-09-27T03:23:26.324Z,0.90
2018-09-27T03:25:54.889Z,0.80
2018-09-27T03:28:23.700Z,0.73
2018-09-27T03:30:52.416Z,0.60
2018-09-27T03:33:20.907Z,0.50
2018-09-27T03:35:49.385Z,0.90
2018-09-27T03:38:17.819Z,0.67
2018-09-27T03:40:46.288Z,0.53
2018-09-27T03:43:14.727Z,0.70
2018-09-27T03:45:43.177Z,0.60
2018-09-27T03:48:11.632Z,0.50
2018-09-27T03:50:40.089Z,0.73
2018-09-27T03:53:08.528Z,0.67
2018-09-27T03:55:37.052Z,0.53
2018-09-27T03:58:05.753Z,0.60
2018-09-27T04:00:34.195Z,0.60
2018-09-27T04:03:02.717Z,0.60
2018-09-27T04:05:31.135Z,0.70
2018-09-27T04:07:59.577Z,0.50
2018-09-27T04:10:28.022Z,0.50
2018-09-27T04:12:56.492Z,0.80
2018-09-27T04:15:24.925Z,0.60
2018-09-27T04:17:53.381Z,0.67
2018-09-27T04:20:21.814Z,0.70
2018-09-27T04:22:50.261Z,0.63
2018-09-27T04:25:18.886Z,0.70
2018-09-27T04:27:47.365Z,0.47
2018-09-27T04:30:16.895Z,0.60
2018-09-27T04:32:45.345Z,0.50
2018-09-27T04:35:13.759Z,0.60
2018-09-27T04:37:42.204Z,0.70
2018-09-27T04:40:10.652Z,0.70
2018-09-27T04:42:39.185Z,0.50
2018-09-27T04:45:07.635Z,0.70
2018-09-27T04:47:36.087Z,0.60
2018-09-27T04:50:04.633Z,0.50
2018-09-27T04:52:33.112Z,0.80
2018-09-27T04:55:01.542Z,0.70
2018-09-27T04:57:30.045Z,0.70
2018-09-27T04:59:58.599Z,0.60
2018-09-27T05:02:27.084Z,0.60
2018-09-27T05:04:55.561Z,0.60
2018-09-27T05:07:24.081Z,0.70
2018-09-27T05:09:52.259Z,0.53
2018-09-27T05:12:20.818Z,0.73
2018-09-27T05:14:49.268Z,0.50
2018-09-27T05:17:17.808Z,0.50
2018-09-27T05:19:46.300Z,0.63
2018-09-27T05:22:14.813Z,0.50
2018-09-27T05:24:43.280Z,0.40
2018-09-27T05:27:11.836Z,0.67
2018-09-27T05:29:40.321Z,0.50
2018-09-27T05:32:08.844Z,0.50
2018-09-27T05:34:37.076Z,0.60
2018-09-27T05:37:05.676Z,0.47
2018-09-27T05:39:34.129Z,0.40
2018-09-27T05:42:02.636Z,0.40
2018-09-27T05:44:31.116Z,0.60
2018-09-27T05:46:59.632Z,0.47
2018-09-27T05:49:28.160Z,0.60
2018-09-27T05:51:56.653Z,0.70
2018-09-27T05:54:25.178Z,0.60
2018-09-27T05:56:53.676Z,0.57
2018-09-27T05:59:22.207Z,0.80
2018-09-27T06:01:51.690Z,0.50
2018-09-27T06:04:20.288Z,0.50
2018-09-27T06:06:48.760Z,0.70
2018-09-27T06:09:17.291Z,0.50
2018-09-27T06:11:45.776Z,0.50
2018-09-27T06:14:15.541Z,0.60
2018-09-27T06:16:44.404Z,0.70
2018-09-27T06:19:12.961Z,0.70
2018-09-27T06:21:41.679Z,0.40
2018-09-27T06:24:10.209Z,0.60
2018-09-27T06:26:38.420Z,0.60
2018-09-27T06:29:06.957Z,0.47
2018-09-27T06:31:35.441Z,0.50
2018-09-27T06:34:04.225Z,0.50
2018-09-27T06:36:32.420Z,0.50
2018-09-27T06:39:01.088Z,0.40
2018-09-27T06:41:29.656Z,0.85
2018-09-27T06:43:58.160Z,0.62
2018-09-27T06:46:26.636Z,0.65
2018-09-27T06:48:55.205Z,0.50
2018-09-27T06:51:23.858Z,0.47
2018-09-27T06:53:52.368Z,0.45
2018-09-27T06:56:20.850Z,0.60
2018-09-27T06:58:49.377Z,0.40
2018-09-27T07:01:17.993Z,0.50
2018-09-27T07:03:46.472Z,0.65
2018-09-27T07:06:14.930Z,0.42
2018-09-27T07:08:43.677Z,0.50
2018-09-27T07:11:12.120Z,0.60
2018-09-27T07:13:40.656Z,0.50
2018-09-27T07:16:09.332Z,0.47
2018-09-27T07:18:37.820Z,0.78
2018-09-27T07:21:06.632Z,0.50
2018-09-27T07:23:35.337Z,0.40
2018-09-27T07:26:04.117Z,0.60
2018-09-27T07:28:32.696Z,0.60
2018-09-27T07:31:01.185Z,0.40
2018-09-27T07:33:29.664Z,0.72
2018-09-27T07:35:58.297Z,0.60
2018-09-27T07:38:26.839Z,0.50
2018-09-27T07:40:55.356Z,0.50
2018-09-27T07:43:23.896Z,0.60
2018-09-27T07:45:52.453Z,0.55
2018-09-27T07:48:20.951Z,0.50
2018-09-27T07:50:49.441Z,0.42
2018-09-27T07:53:17.940Z,0.40
2018-09-27T07:55:46.614Z,0.55
2018-09-27T07:58:15.137Z,0.40
2018-09-27T08:00:43.641Z,0.40
2018-09-27T08:03:12.173Z,0.40
2018-09-27T08:05:40.640Z,0.60
2018-09-27T08:08:09.116Z,0.30
2018-09-27T08:10:37.625Z,0.50
2018-09-27T08:13:06.139Z,0.30
2018-09-27T08:15:34.336Z,0.40
2018-09-27T08:18:02.798Z,0.50
2018-09-27T08:20:31.392Z,0.40
2018-09-27T08:22:59.805Z,0.33
2018-09-27T08:25:28.413Z,0.30
2018-09-27T08:27:56.861Z,0.47
2018-09-27T08:30:25.463Z,0.40
2018-09-27T08:32:53.631Z,0.40
2018-09-27T08:35:22.175Z,0.50
2018-09-27T08:37:50.653Z,0.35
2018-09-27T08:40:19.175Z,0.45
2018-09-27T08:42:47.876Z,0.47
2018-09-27T08:45:16.535Z,0.50
2018-09-27T08:47:44.905Z,0.50
2018-09-27T08:50:13.411Z,0.40
2018-09-27T08:52:41.904Z,0.55
2018-09-27T08:55:10.409Z,0.50
2018-09-27T08:57:38.893Z,0.50
2018-09-27T09:00:08.047Z,0.60
2018-09-27T09:02:36.550Z,0.60
2018-09-27T09:05:05.133Z,0.93
2018-09-27T09:07:33.636Z,0.60
2018-09-27T09:10:01.841Z,0.50
2018-09-27T09:12:30.506Z,0.30
2018-09-27T09:14:59.151Z,0.57
2018-09-27T09:17:27.760Z,0.72
2018-09-27T09:19:56.224Z,0.50
2018-09-27T09:22:24.725Z,0.72
2018-09-27T09:24:53.209Z,0.50
2018-09-27T09:27:21.721Z,0.55
2018-09-27T09:30:05.001Z,0.90
2018-09-27T09:32:33.564Z,0.50
2018-09-27T09:35:02.014Z,0.50
2018-09-27T09:37:30.501Z,0.50
2018-09-27T09:39:58.980Z,0.72
2018-09-27T09:42:27.920Z,0.80
2018-09-27T09:44:56.501Z,0.60
2018-09-27T09:47:25.100Z,0.90
2018-09-27T09:49:53.646Z,0.60
2018-09-27T09:52:22.134Z,0.70
2018-09-27T09:54:50.611Z,0.60
2018-09-27T09:57:19.115Z,0.50
2018-09-27T09:59:47.578Z,0.47
2018-09-27T10:02:16.157Z,0.60
2018-09-27T10:04:44.610Z,0.80
2018-09-27T10:07:13.292Z,0.65
2018-09-27T10:09:41.764Z,0.70
2018-09-27T10:12:10.468Z,0.75
2018-09-27T10:14:38.928Z,0.60
2018-09-27T10:17:07.686Z,0.70
2018-09-27T10:19:36.320Z,0.78
2018-09-27T10:22:04.899Z,0.57
2018-09-27T10:24:33.350Z,0.60
2018-09-27T10:27:01.880Z,0.60
2018-09-27T10:29:30.045Z,0.60
2018-09-27T10:31:58.553Z,0.70
2018-09-27T10:34:27.041Z,0.70
2018-09-27T10:36:55.251Z,0.70
2018-09-27T10:39:23.678Z,0.60
2018-09-27T10:41:52.237Z,0.40
2018-09-27T10:44:20.721Z,0.57
2018-09-27T10:46:49.160Z,0.33
2018-09-27T10:49:17.569Z,0.47
2018-09-27T10:51:46.018Z,0.53
2018-09-27T10:54:14.716Z,0.60
2018-09-27T10:56:43.358Z,0.50
2018-09-27T10:59:11.810Z,0.40
2018-09-27T11:01:40.281Z,0.40
2018-09-27T11:04:08.776Z,0.50
2018-09-27T11:06:37.189Z,0.68
2018-09-27T11:09:06.603Z,0.40
2018-09-27T11:11:35.115Z,0.42
2018-09-27T11:14:03.547Z,0.40
2018-09-27T11:16:32.026Z,0.62
2018-09-27T11:19:00.525Z,0.47
2018-09-27T11:21:28.952Z,0.40
2018-09-27T11:23:57.509Z,0.40
2018-09-27T11:26:25.951Z,0.40
2018-09-27T11:28:59.856Z,0.75
2018-09-27T11:31:33.680Z,0.70
2018-09-27T11:34:02.198Z,0.40
2018-09-27T11:36:30.636Z,0.70
2018-09-27T11:38:58.784Z,0.82
2018-09-27T11:41:27.189Z,0.50
2018-09-27T11:43:55.441Z,0.53
2018-09-27T11:46:23.845Z,0.60
2018-09-27T11:48:52.309Z,0.50
2018-09-27T11:51:20.751Z,0.62
2018-09-27T11:54:03.600Z,0.50
2018-09-27T11:56:32.003Z,0.60
2018-09-27T11:59:00.464Z,0.50
2018-09-27T12:01:28.957Z,0.85
2018-09-27T12:03:57.444Z,0.50
2018-09-27T12:06:26.015Z,0.50
2018-09-27T12:08:54.461Z,0.50
2018-09-27T12:11:22.902Z,0.40
2018-09-27T12:13:51.395Z,0.40
2018-09-27T12:16:19.830Z,0.30
2018-09-27T12:18:48.421Z,0.50
2018-09-27T12:21:16.845Z,0.50
2018-09-27T12:23:45.298Z,0.68
2018-09-27T12:26:13.740Z,0.50
2018-09-27T12:28:42.248Z,0.45
2018-09-27T12:31:10.738Z,0.45
2018-09-27T12:33:39.118Z,0.40
2018-09-27T12:36:07.564Z,0.50
2018-09-27T12:38:36.105Z,0.50
2018-09-27T12:41:04.477Z,0.40
2018-09-27T12:43:32.908Z,0.50
2018-09-27T12:46:01.435Z,0.60
2018-09-27T12:48:29.918Z,0.50
2018-09-27T12:50:58.332Z,0.42
2018-09-27T12:53:26.776Z,0.40
2018-09-27T12:55:55.339Z,0.60
2018-09-27T12:58:23.859Z,0.50
2018-09-27T13:00:52.309Z,0.50
2018-09-27T13:03:20.727Z,0.70
2018-09-27T13:05:49.172Z,0.60
2018-09-27T13:08:17.605Z,0.55
2018-09-27T13:10:46.017Z,1.05
2018-09-27T13:13:14.682Z,0.50
2018-09-27T13:15:43.029Z,0.50
2018-09-27T13:18:11.795Z,0.80
2018-09-27T13:20:40.355Z,0.40
2018-09-27T13:23:08.790Z,0.50
2018-09-27T13:25:37.262Z,0.60
2018-09-27T13:28:05.661Z,0.50
2018-09-27T13:30:33.820Z,0.40
2018-09-27T13:33:01.972Z,0.40
2018-09-27T13:35:30.404Z,0.45
2018-09-27T13:37:58.819Z,0.50
2018-09-27T13:40:26.970Z,0.68
2018-09-27T13:42:55.428Z,0.75
2018-09-27T13:45:23.872Z,0.60
2018-09-27T13:47:52.335Z,0.55
2018-09-27T13:50:20.815Z,0.42
2018-09-27T13:52:49.245Z,0.50
2018-09-27T13:55:17.725Z,0.50
2018-09-27T13:57:46.733Z,0.60
2018-09-27T14:00:15.206Z,0.50
2018-09-27T14:02:43.325Z,0.50
2018-09-27T14:05:11.768Z,0.53
2018-09-27T14:07:40.222Z,0.65
2018-09-27T14:10:08.705Z,0.50
2018-09-27T14:12:37.146Z,0.60
2018-09-27T14:15:05.677Z,0.50
2018-09-27T14:17:34.112Z,0.53
2018-09-27T14:20:02.630Z,0.45
2018-09-27T14:22:30.743Z,0.42
2018-09-27T14:24:59.384Z,0.40
2018-09-27T14:27:27.709Z,0.30
2018-09-27T14:29:55.865Z,0.50
2018-09-27T14:32:24.357Z,0.60
2018-09-27T14:34:52.502Z,0.40
2018-09-27T14:37:21.190Z,3.05
2018-09-27T14:39:49.662Z,0.50
2018-09-27T14:42:18.308Z,0.60
2018-09-27T14:44:46.758Z,0.50
2018-09-27T14:47:15.181Z,0.55
2018-09-27T14:49:43.628Z,6.17
2018-09-27T14:52:12.470Z,1.57
2018-09-27T14:54:40.941Z,0.80
2018-09-27T14:57:09.522Z,0.42
2018-09-27T14:59:38.171Z,0.88
2018-09-27T15:02:06.853Z,0.62
2018-09-27T15:04:35.244Z,1.55
2018-09-27T15:07:03.881Z,0.50
2018-09-27T15:09:32.349Z,0.60
2018-09-27T15:12:01.052Z,0.82
2018-09-27T15:14:29.260Z,0.60
2018-09-27T15:16:57.766Z,0.55
2018-09-27T15:19:26.185Z,0.60
2018-09-27T15:22:29.448Z,0.55
2018-09-27T15:24:57.615Z,0.42
2018-09-27T15:27:26.080Z,0.47
2018-09-27T15:29:54.663Z,0.60
2018-09-27T15:32:23.080Z,0.50
2018-09-27T15:34:52.172Z,0.50
2018-09-27T15:37:20.643Z,0.45
2018-09-27T15:39:49.219Z,0.60
2018-09-27T15:42:17.673Z,1.27
2018-09-27T15:44:46.135Z,0.60
2018-09-27T15:47:14.284Z,0.68
2018-09-27T15:49:42.447Z,0.50
2018-09-27T15:52:10.960Z,0.80
2018-09-27T15:54:39.421Z,0.57
2018-09-27T15:57:07.866Z,0.80
2018-09-27T15:59:36.292Z,0.82
2018-09-27T16:02:04.752Z,0.75
2018-09-27T16:04:33.185Z,0.80
2018-09-27T16:07:01.658Z,1.00
2018-09-27T16:09:30.101Z,1.27
2018-09-27T16:11:58.576Z,0.98
2018-09-27T16:14:27.018Z,0.80
2018-09-27T16:16:55.470Z,1.17
2018-09-27T16:19:24.129Z,0.80
2018-09-27T16:21:52.575Z,1.07
2018-09-27T16:24:21.044Z,0.80
2018-09-27T16:26:49.501Z,0.70
2018-09-27T16:29:18.241Z,0.60
2018-09-27T16:31:46.722Z,0.90
2018-09-27T16:34:15.149Z,1.02
2018-09-27T16:36:43.612Z,0.50
2018-09-27T16:39:12.038Z,0.85
2018-09-27T16:41:40.261Z,0.80
2018-09-27T16:44:08.819Z,0.72
2018-09-27T16:46:37.441Z,1.02
2018-09-27T16:49:06.469Z,0.95
2018-09-27T16:51:35.433Z,1.20
2018-09-27T16:54:03.988Z,1.85
2018-09-27T16:56:32.442Z,2.80
2018-09-27T16:59:01.041Z,2.75
2018-09-27T17:01:29.702Z,2.92
2018-09-27T17:03:58.144Z,3.30
2018-09-27T17:06:26.629Z,2.05
2018-09-27T17:08:55.089Z,2.35
2018-09-27T17:11:23.528Z,1.77
2018-09-27T17:13:52.052Z,1.98
2018-09-27T17:16:20.618Z,2.17
2018-09-27T17:18:49.370Z,1.40
2018-09-27T17:21:17.735Z,1.72
2018-09-27T17:23:46.305Z,1.52
2018-09-27T17:26:14.921Z,1.87
2018-09-27T17:28:43.478Z,1.67
2018-09-27T17:31:11.883Z,1.75
2018-09-27T17:33:40.312Z,1.62
2018-09-27T17:36:08.744Z,1.60
2018-09-27T17:38:37.374Z,1.85
2018-09-27T17:41:05.806Z,3.12
2018-09-27T17:43:34.309Z,3.45
2018-09-27T17:46:02.786Z,4.75
2018-09-27T17:48:30.897Z,3.72
2018-09-27T17:50:59.297Z,2.45
2018-09-27T17:53:27.885Z,2.65
2018-09-27T17:55:56.201Z,2.10
2018-09-27T17:58:24.689Z,1.72
2018-09-27T18:00:52.799Z,1.95
2018-09-27T18:03:21.342Z,1.62
2018-09-27T18:05:49.781Z,2.20
2018-09-27T18:08:18.261Z,2.15
2018-09-27T18:10:46.786Z,1.80
2018-09-27T18:13:15.202Z,2.10
2018-09-27T18:15:43.626Z,2.33
2018-09-27T18:18:13.082Z,2.20
2018-09-27T18:20:42.057Z,2.40
2018-09-27T18:23:10.512Z,2.22
2018-09-27T18:25:38.994Z,2.27
2018-09-27T18:28:07.415Z,2.58
2018-09-27T18:30:35.893Z,1.65
2018-09-27T18:33:04.033Z,1.95
2018-09-27T18:35:32.520Z,2.00
2018-09-27T18:38:01.003Z,2.50
2018-09-27T18:40:29.497Z,2.17
2018-09-27T18:42:57.709Z,1.37
2018-09-27T18:45:26.185Z,1.52
2018-09-27T18:47:54.634Z,1.50
2018-09-27T18:50:23.101Z,2.08
2018-09-27T18:52:51.819Z,1.67
2018-09-27T18:55:20.283Z,1.60
2018-09-27T18:57:48.819Z,1.95
2018-09-27T19:00:17.249Z,2.20
2018-09-27T19:02:45.705Z,2.30
2018-09-27T19:05:14.216Z,2.77
2018-09-27T19:07:42.366Z,2.50
2018-09-27T19:10:10.817Z,2.08
2018-09-27T19:12:39.256Z,2.22
2018-09-27T19:15:07.717Z,2.37
2018-09-27T19:17:36.141Z,2.52
2018-09-27T19:20:04.884Z,2.00
2018-09-27T19:22:33.383Z,2.00
2018-09-27T19:25:01.806Z,2.50
2018-09-27T19:27:30.249Z,2.60
2018-09-27T19:29:58.747Z,2.30
2018-09-27T19:32:27.155Z,2.30
2018-09-27T19:34:55.628Z,2.47
2018-09-27T19:37:24.064Z,2.90
2018-09-27T19:39:53.466Z,2.72
2018-09-27T19:42:21.902Z,2.90
2018-09-27T19:44:50.397Z,2.98
2018-09-27T19:47:18.501Z,3.12
2018-09-27T19:49:46.674Z,2.80
2018-09-27T19:52:15.144Z,2.70
2018-09-27T19:54:43.553Z,1.80
2018-09-27T19:57:11.968Z,1.87
2018-09-27T19:59:40.416Z,2.30
2018-09-27T20:02:08.817Z,1.90
2018-09-27T20:04:37.343Z,2.00
2018-09-27T20:07:06.116Z,1.92
2018-09-27T20:09:34.544Z,1.47
2018-09-27T20:12:02.970Z,2.00
2018-09-27T20:14:31.464Z,1.70
2018-09-27T20:16:59.986Z,1.95
2018-09-27T20:19:28.364Z,1.70
2018-09-27T20:21:56.858Z,1.70
2018-09-27T20:24:25.221Z,1.50
2018-09-27T20:26:53.652Z,1.15
2018-09-27T20:29:22.072Z,1.40
2018-09-27T20:31:50.502Z,1.10
2018-09-27T20:34:18.962Z,1.12
2018-09-27T20:36:47.449Z,1.22
2018-09-27T20:39:15.869Z,1.00
2018-09-27T20:41:44.292Z,1.25
2018-09-27T20:44:12.701Z,1.30
2018-09-27T20:46:40.912Z,0.98
2018-09-27T20:49:09.353Z,1.10
2018-09-27T20:51:37.918Z,1.10
2018-09-27T20:54:06.415Z,1.60
2018-09-27T20:56:34.797Z,1.05
2018-09-27T20:59:03.231Z,1.20
2018-09-27T21:01:31.684Z,1.30
2018-09-27T21:03:59.808Z,1.20
2018-09-27T21:06:28.272Z,1.20
2018-09-27T21:08:56.710Z,1.60
2018-09-27T21:11:25.198Z,1.30
2018-09-27T21:13:53.631Z,1.15
2018-09-27T21:16:22.109Z,1.10
2018-09-27T21:18:50.533Z,1.30
2018-09-27T21:21:18.996Z,1.35
2018-09-27T21:23:47.444Z,0.95
2018-09-27T21:26:15.923Z,1.10
2018-09-27T21:28:44.371Z,1.22
2018-09-27T21:31:12.957Z,1.30
2018-09-27T21:33:41.417Z,1.30
2018-09-27T21:36:09.853Z,1.77
2018-09-27T21:38:38.374Z,1.50
2018-09-27T21:41:06.873Z,1.10
2018-09-27T21:43:35.288Z,1.45
2018-09-27T21:46:03.784Z,1.42
2018-09-27T21:48:31.900Z,1.60
2018-09-27T21:51:00.357Z,1.50
2018-09-27T21:53:28.777Z,1.65
2018-09-27T21:55:57.218Z,1.70
2018-09-27T21:58:25.624Z,1.37
2018-09-27T22:00:53.736Z,1.57
2018-09-27T22:03:23.499Z,1.40
2018-09-27T22:05:52.231Z,2.40
2018-09-27T22:08:20.713Z,1.15
2018-09-27T22:10:49.492Z,1.20
2018-09-27T22:13:18.218Z,1.40
2018-09-27T22:15:46.636Z,1.45
2018-09-27T22:18:15.105Z,1.50
2018-09-27T22:20:43.538Z,1.47
2018-09-27T22:23:11.981Z,1.30
2018-09-27T22:25:40.395Z,1.20
2018-09-27T22:28:08.857Z,1.32
2018-09-27T22:30:37.273Z,1.60
2018-09-27T22:33:05.705Z,1.50
2018-09-27T22:35:34.117Z,1.20
2018-09-27T22:38:02.548Z,1.30
2018-09-27T22:40:30.945Z,1.43
2018-09-27T22:42:59.297Z,1.05
2018-09-27T22:45:27.876Z,1.53
2018-09-27T22:47:56.304Z,1.57
2018-09-27T22:50:24.788Z,2.22
2018-09-27T22:52:53.245Z,2.02
2018-09-27T22:55:21.661Z,2.00
2018-09-27T22:57:50.093Z,1.50
2018-09-27T23:00:18.565Z,1.20
2018-09-27T23:02:47.032Z,1.50
2018-09-27T23:05:15.448Z,1.47
2018-09-27T23:07:43.893Z,1.95
2018-09-27T23:10:12.285Z,1.87
2018-09-27T23:12:40.757Z,2.20
2018-09-27T23:15:09.202Z,1.80
2018-09-27T23:17:37.653Z,1.77
2018-09-27T23:20:07.650Z,2.00
2018-09-27T23:22:36.119Z,1.53
2018-09-27T23:25:04.567Z,1.52
2018-09-27T23:27:33.021Z,1.60
2018-09-27T23:30:01.149Z,1.70
2018-09-27T23:32:29.576Z,1.50
2018-09-27T23:34:58.226Z,1.45
2018-09-27T23:37:26.665Z,1.33
2018-09-27T23:39:55.078Z,1.40
2018-09-27T23:42:23.493Z,1.40
2018-09-27T23:44:51.949Z,1.57
2018-09-27T23:47:20.387Z,1.40
2018-09-27T23:49:49.177Z,1.42
2018-09-27T23:52:17.584Z,1.20
2018-09-27T23:54:46.001Z,1.50
2018-09-27T23:57:14.476Z,1.30
2018-09-27T23:59:42.913Z,1.20
